WetterOnline ( http://www.wetteronline.de )

Wetter aktuell Nuthetal

Aktuelles Wetter: Potsdam (100m)

6-stündlich | Neueste Meldungen
Ortszeit Temperatur Wetter
Sa, 17.11. 13:00 5.0° C leicht bewölkt
Sa, 17.11. 7:00 -0.4° C wolkenlos
Sa, 17.11. 1:00 2.4° C wolkenlos
Fr, 16.11. 19:00 4.5° C bewölkt
Fr, 16.11. 13:00 8.6° C leicht bewölkt
Fr, 16.11. 7:00 0.9° C wolkenlos
Fr, 16.11. 1:00 3.4° C wolkenlos
Do, 15.11. 19:00 5.5° C fast wolkenlos
Ortszeit Temperatur Wetter
Sa, 17.11. 14:00 5.0° C leicht bewölkt
Sa, 17.11. 13:50 5.0° C wolkenlos
Sa, 17.11. 13:40 5.1° C wolkenlos
Sa, 17.11. 13:30 5.5° C fast wolkenlos
Sa, 17.11. 13:20 5.5° C wolkenlos
Sa, 17.11. 13:10 5.4° C wolkenlos
Sa, 17.11. 13:00 5.0° C leicht bewölkt
Sa, 17.11. 12:30 4.9° C leicht bewölkt
Sa, 17.11. 12:00 4.2° C leicht bewölkt
Sa, 17.11. 11:30 3.2° C fast wolkenlos
Sa, 17.11. 11:00 2.6° C fast wolkenlos
Ortszeit Relative Feuchte Sichtweite
Sa, 17.11. 13:00 60% 28 km
Sa, 17.11. 7:00 95% 18 km
Sa, 17.11. 1:00 86% 25 km
Fr, 16.11. 19:00 79% 35 km
Fr, 16.11. 13:00 62% 40 km
Fr, 16.11. 7:00 97% 16 km
Fr, 16.11. 1:00 96% 18 km
Do, 15.11. 19:00 92% 35 km
Ortszeit Relative Feuchte Sichtweite
Sa, 17.11. 14:00 59% 30 km
Sa, 17.11. 13:50 59% -
Sa, 17.11. 13:40 58% -
Sa, 17.11. 13:30 57% 30 km
Sa, 17.11. 13:20 57% -
Sa, 17.11. 13:10 58% -
Sa, 17.11. 13:00 60% 28 km
Sa, 17.11. 12:30 63% 28 km
Sa, 17.11. 12:00 65% 28 km
Sa, 17.11. 11:30 73% 22 km
Sa, 17.11. 11:00 78% 18 km
Ortszeit Niederschlagsmenge Niederschlagsart
Sa, 17.11. 13:00 0.0 l/m2 in 6 Std. -
Sa, 17.11. 7:00 0.0 l/m2 in 12 Std. -
Sa, 17.11. 1:00 0.0 l/m2 in 6 Std. -
Fr, 16.11. 19:00 0.0 l/m2 in 12 Std. -
Fr, 16.11. 13:00 0.0 l/m2 in 6 Std. -
Fr, 16.11. 7:00 0.0 l/m2 in 12 Std. -
Fr, 16.11. 1:00 0.0 l/m2 in 6 Std. -
Do, 15.11. 19:00 0.0 l/m2 in 12 Std. -
Ortszeit Niederschlagsmenge Niederschlagsart
Sa, 17.11. 14:00 0.0 l/m2 in 1 Std. -
Sa, 17.11. 13:50 keine Meldung -
Sa, 17.11. 13:40 keine Meldung -
Sa, 17.11. 13:30 0.0 l/m2 in 1 Std. -
Sa, 17.11. 13:20 keine Meldung -
Sa, 17.11. 13:10 keine Meldung -
Sa, 17.11. 13:00 0.0 l/m2 in 1 Std. -
Sa, 17.11. 12:30 0.0 l/m2 in 1 Std. -
Sa, 17.11. 12:00 0.0 l/m2 in 1 Std. -
Sa, 17.11. 11:30 0.0 l/m2 in 1 Std. -
Sa, 17.11. 11:00 0.0 l/m2 in 1 Std. -
Ortszeit Stärke Spitze Richtung
km/h Bft. km/h Grad Sektor
Sa, 17.11. 13:00 20 4 35 80° O
Sa, 17.11. 7:00 18 3 32 90° O
Sa, 17.11. 1:00 17 3 39 90° O
Fr, 16.11. 19:00 14 3 36 100° O
Fr, 16.11. 13:00 14 3 40 110° O
Fr, 16.11. 7:00 15 3 30 110° O
Fr, 16.11. 1:00 14 3 29 110° O
Do, 15.11. 19:00 17 3 26 100° O
Ortszeit Stärke Spitze Richtung
km/h Bft. km/h Grad Sektor
Sa, 17.11. 14:00 18 3 36 100° O
Sa, 17.11. 13:50 18 3 - 100° O
Sa, 17.11. 13:40 22 4 - 90° O
Sa, 17.11. 13:30 19 3 31 100° O
Sa, 17.11. 13:20 19 3 - 100° O
Sa, 17.11. 13:10 19 3 - 100° O
Sa, 17.11. 13:00 20 4 33 80° O
Sa, 17.11. 12:30 18 3 32 90° O
Sa, 17.11. 12:00 18 3 36 90° O
Sa, 17.11. 11:30 22 4 36 90° O
Sa, 17.11. 11:00 22 4 36 90° O
Ortszeit Untergrenze Bedeckung Gattung
total tief tief mittel hoch
Sa, 17.11. 13:00 9000 m 2/8 0/8 - - Ci
Sa, 17.11. 7:00 - 0/8 0/8 - - -
Sa, 17.11. 1:00 - 0/8 0/8 - - -
Fr, 16.11. 19:00 690 m 7/8 7/8 Sc - -
Fr, 16.11. 13:00 7500 m 2/8 0/8 - - Ci
Fr, 16.11. 7:00 10500 m 0/8 0/8 - - -
Fr, 16.11. 1:00 12000 m 0/8 0/8 - - -
Do, 15.11. 19:00 3900 m 1/8 1/8 - Ac -
Ortszeit Bedeckungsgrad in Achtel und Wolkenuntergrenze
Sa, 17.11. 14:00 2(9000m)
Sa, 17.11. 13:50 keine Wolken
Sa, 17.11. 13:40 keine Wolken
Sa, 17.11. 13:30 1(9000m)
Sa, 17.11. 13:20 keine Wolken
Sa, 17.11. 13:10 keine Wolken
Sa, 17.11. 13:00 2(9000m)
Sa, 17.11. 12:30 2(9000m)
Sa, 17.11. 12:00 2(9000m)
Sa, 17.11. 11:30 1(9000m)
Sa, 17.11. 11:00 1(9000m)
Ortszeit Luftdruck NN (hPa) Tendenz (hPa in 3 Std.)
Sa, 17.11. 13:00 1038 - 0,1
Sa, 17.11. 7:00 1038 - 0,3
Sa, 17.11. 1:00 1037 + 0,8
Fr, 16.11. 19:00 1036 + 0,8
Fr, 16.11. 13:00 1035 - 0,4
Fr, 16.11. 7:00 1034 + 0,9
Fr, 16.11. 1:00 1033 + 0,7
Do, 15.11. 19:00 1031 + 0,4
Ortszeit Luftdruck NN (hPa) Tendenz (hPa in 3 Std.)
Sa, 17.11. 14:00 1038 - 0,4
Sa, 17.11. 13:50 1038 keine Meldung
Sa, 17.11. 13:40 1038 keine Meldung
Sa, 17.11. 13:30 1038 - 0,3
Sa, 17.11. 13:20 1038 keine Meldung
Sa, 17.11. 13:10 1038 keine Meldung
Sa, 17.11. 13:00 1038 - 0,1
Sa, 17.11. 12:30 1038 - 0,3
Sa, 17.11. 12:00 1038 - 0,4
Sa, 17.11. 11:30 1038 - 0,2
Sa, 17.11. 11:00 1039 + 0,5
Ortszeit Schneehöhe (cm)
Sa, 17.11. 13:00 0
Sa, 17.11. 7:00 0
Sa, 17.11. 1:00 0
Fr, 16.11. 19:00 0
Fr, 16.11. 13:00 0
Fr, 16.11. 7:00 0
Fr, 16.11. 1:00 0
Do, 15.11. 19:00 0
Ortszeit Schneehöhe (cm)
Sa, 17.11. 14:00 -
Sa, 17.11. 13:50 -
Sa, 17.11. 13:40 -
Sa, 17.11. 13:30 -
Sa, 17.11. 13:20 -
Sa, 17.11. 13:10 -
Sa, 17.11. 13:00 0
Sa, 17.11. 12:30 -
Sa, 17.11. 12:00 -
Sa, 17.11. 11:30 -
Sa, 17.11. 11:00 -
Link zu dieser Seite / Seite empfehlen

Das Wetter in ...